createdAt,value
2023-05-23T00:01:51.115Z,100332.86
2023-05-23T00:04:22.270Z,100333.66
2023-05-23T00:06:50.984Z,100329.95
2023-05-23T00:09:20.089Z,100329.30
2023-05-23T00:11:48.596Z,100329.37
2023-05-23T00:14:17.279Z,100331.80
2023-05-23T00:16:46.678Z,100330.69
2023-05-23T00:19:16.399Z,100331.84
2023-05-23T00:21:51.428Z,100329.02
2023-05-23T00:24:20.801Z,100325.53
2023-05-23T00:26:49.386Z,100322.61
2023-05-23T00:29:17.943Z,100319.15
2023-05-23T00:31:47.214Z,100316.74
2023-05-23T00:34:19.875Z,100319.45
2023-05-23T00:36:50.718Z,100318.19
2023-05-23T00:39:21.974Z,100318.33
2023-05-23T00:41:52.586Z,100315.26
2023-05-23T00:44:22.342Z,100314.36
2023-05-23T00:46:55.586Z,100311.95
2023-05-23T00:49:25.045Z,100311.50
2023-05-23T00:51:53.476Z,100308.78
2023-05-23T00:54:27.566Z,100310.77
2023-05-23T00:56:56.389Z,100310.77
2023-05-23T00:59:26.292Z,100313.48
2023-05-23T01:01:56.614Z,100314.67
2023-05-23T01:04:28.696Z,100315.56
2023-05-23T01:06:58.026Z,100312.61
2023-05-23T01:09:31.214Z,100313.16
2023-05-23T01:12:14.517Z,100312.66
2023-05-23T01:14:55.361Z,100313.17
2023-05-23T01:17:54.997Z,100315.68
2023-05-23T01:20:29.126Z,100319.15
2023-05-23T01:23:07.143Z,100317.66
2023-05-23T01:25:36.522Z,100316.36
2023-05-23T01:28:08.233Z,100315.53
2023-05-23T01:30:41.386Z,100318.20
2023-05-23T01:33:12.037Z,100319.12
2023-05-23T01:35:40.912Z,100317.71
2023-05-23T01:38:09.634Z,100314.39
2023-05-23T01:40:38.263Z,100308.15
2023-05-23T01:43:07.504Z,100305.86
2023-05-23T01:45:36.534Z,100306.55
2023-05-23T01:48:06.623Z,100305.00
2023-05-23T01:50:35.427Z,100304.66
2023-05-23T01:53:04.749Z,100304.39
2023-05-23T01:55:33.400Z,100299.42
2023-05-23T01:58:03.316Z,100291.50
2023-05-23T02:00:31.813Z,100291.23
2023-05-23T02:03:00.396Z,100288.64
2023-05-23T02:05:28.981Z,100288.80
2023-05-23T02:07:57.496Z,100292.52
2023-05-23T02:10:26.605Z,100292.52
2023-05-23T02:12:55.382Z,100288.25
2023-05-23T02:15:23.927Z,100285.91
2023-05-23T02:17:53.400Z,100286.63
2023-05-23T02:20:22.030Z,100285.95
2023-05-23T02:22:50.712Z,100282.98
2023-05-23T02:25:19.065Z,100278.41
2023-05-23T02:27:47.987Z,100273.80
2023-05-23T02:30:17.451Z,100272.55
2023-05-23T02:32:46.578Z,100272.95
2023-05-23T02:35:15.936Z,100272.30
2023-05-23T02:37:44.580Z,100271.23
2023-05-23T02:40:13.621Z,100267.48
2023-05-23T02:42:42.035Z,100270.11
2023-05-23T02:45:10.849Z,100266.88
2023-05-23T02:47:40.356Z,100267.27
2023-05-23T02:50:09.359Z,100264.48
2023-05-23T02:52:37.785Z,100263.15
2023-05-23T02:55:07.021Z,100263.55
2023-05-23T02:57:35.456Z,100265.91
2023-05-23T03:00:04.046Z,100265.77
2023-05-23T03:02:33.480Z,100265.61
2023-05-23T03:05:02.766Z,100264.95
2023-05-23T03:07:34.085Z,100260.50
2023-05-23T03:10:02.820Z,100263.92
2023-05-23T03:12:32.273Z,100265.73
2023-05-23T03:15:01.118Z,100263.52
2023-05-23T03:17:29.675Z,100262.88
2023-05-23T03:19:59.283Z,100260.27
2023-05-23T03:22:28.584Z,100264.08
2023-05-23T03:24:57.506Z,100265.59
2023-05-23T03:27:27.022Z,100262.48
2023-05-23T03:29:56.548Z,100264.36
2023-05-23T03:32:25.578Z,100265.45
2023-05-23T03:34:54.300Z,100266.38
2023-05-23T03:37:22.882Z,100265.52
2023-05-23T03:39:51.888Z,100268.47
2023-05-23T03:42:20.497Z,100268.55
2023-05-23T03:44:50.313Z,100269.85
2023-05-23T03:47:18.988Z,100267.06
2023-05-23T03:49:48.366Z,100263.50
2023-05-23T03:52:17.400Z,100269.13
2023-05-23T03:54:47.101Z,100267.83
2023-05-23T03:57:16.565Z,100270.58
2023-05-23T03:59:45.294Z,100265.33
2023-05-23T04:02:14.664Z,100262.93
2023-05-23T04:04:44.416Z,100264.79
2023-05-23T04:07:13.334Z,100260.46
2023-05-23T04:09:41.958Z,100258.31
2023-05-23T04:12:12.248Z,100254.19
2023-05-23T04:14:44.524Z,100254.41
2023-05-23T04:17:15.435Z,100245.91
2023-05-23T04:19:46.392Z,100243.77
2023-05-23T04:22:17.306Z,100243.25
2023-05-23T04:24:47.516Z,100247.09
2023-05-23T04:27:18.407Z,100247.02
2023-05-23T04:29:49.365Z,100249.61
2023-05-23T04:32:23.391Z,100247.59
2023-05-23T04:34:54.314Z,100250.88
2023-05-23T04:37:26.565Z,100250.42
2023-05-23T04:39:57.306Z,100246.65
2023-05-23T04:42:30.354Z,100249.45
2023-05-23T04:45:02.516Z,100246.55
2023-05-23T04:47:37.230Z,100250.04
2023-05-23T04:50:08.368Z,100250.67
2023-05-23T04:52:39.333Z,100248.84
2023-05-23T04:55:11.424Z,100244.20
2023-05-23T04:57:42.326Z,100244.16
2023-05-23T05:00:13.498Z,100244.32
2023-05-23T05:02:45.397Z,100246.41
2023-05-23T05:05:16.434Z,100243.40
2023-05-23T05:07:49.605Z,100239.95
2023-05-23T05:10:19.627Z,100237.92
2023-05-23T05:20:11.380Z,100227.48
2023-05-23T05:22:40.740Z,100226.52
2023-05-23T05:25:10.616Z,100226.64
2023-05-23T05:27:39.961Z,100224.96
2023-05-23T05:30:10.517Z,100224.70
2023-05-23T05:32:38.947Z,100227.61
2023-05-23T05:35:08.379Z,100218.60
2023-05-23T05:37:36.642Z,100218.67
2023-05-23T05:40:08.945Z,100222.69
2023-05-23T05:46:37.474Z,100223.09
2023-05-23T06:07:26.417Z,100223.88
2023-05-23T06:09:26.589Z,100222.34
2023-05-23T06:42:21.492Z,100207.34
2023-05-23T06:46:04.097Z,100198.58
2023-05-23T06:48:32.957Z,100191.79
2023-05-23T06:51:01.715Z,100187.66
2023-05-23T06:53:30.411Z,100183.17
2023-05-23T06:56:16.957Z,100177.76
2023-05-23T06:58:47.186Z,100176.65
2023-05-23T07:01:16.239Z,100174.84
2023-05-23T07:03:46.282Z,100175.17
2023-05-23T07:06:15.123Z,100175.70
2023-05-23T07:08:44.011Z,100172.45
2023-05-23T07:11:12.853Z,100168.50
2023-05-23T07:13:41.698Z,100166.16
2023-05-23T07:16:10.382Z,100159.31
2023-05-23T07:18:38.966Z,100155.86
2023-05-23T07:21:07.783Z,100156.36
2023-05-23T07:23:36.323Z,100161.29
2023-05-23T07:26:05.462Z,100155.43
2023-05-23T07:28:34.826Z,100154.69
2023-05-23T07:31:03.489Z,100155.14
2023-05-23T07:33:34.794Z,100152.20
2023-05-23T07:38:58.520Z,100152.79
2023-05-23T07:42:40.820Z,100149.79
2023-05-23T07:47:28.867Z,100138.92
2023-05-23T07:49:43.337Z,100139.94
2023-05-23T08:00:45.319Z,100125.62
2023-05-23T08:08:27.428Z,100124.63
2023-05-23T08:11:45.787Z,100127.08
2023-05-23T08:16:20.988Z,100123.69
2023-05-23T08:35:53.317Z,100111.77
2023-05-23T08:43:12.189Z,100108.62
2023-05-23T08:44:57.331Z,100104.23
2023-05-23T08:58:46.437Z,100087.46
2023-05-23T09:02:36.252Z,100086.08
2023-05-23T09:05:28.799Z,100085.30
2023-05-23T09:12:18.268Z,100088.52
2023-05-23T09:15:50.605Z,100087.83
2023-05-23T09:19:14.975Z,100083.13
2023-05-23T09:22:19.212Z,100075.88
2023-05-23T09:25:04.286Z,100078.77
2023-05-23T09:28:42.948Z,100074.23
2023-05-23T09:31:56.872Z,100074.73
2023-05-23T09:35:24.540Z,100078.48
2023-05-23T09:42:39.314Z,100074.05
2023-05-23T09:46:03.377Z,100069.59
2023-05-23T09:49:27.993Z,100067.04
2023-05-23T09:52:01.807Z,100065.79
2023-05-23T09:54:30.309Z,100062.20
2023-05-23T09:57:02.450Z,100060.69
2023-05-23T09:59:35.453Z,100061.81
2023-05-23T10:02:08.218Z,100059.30
2023-05-23T10:04:38.030Z,100064.27
2023-05-23T10:07:18.894Z,100066.91
2023-05-23T10:10:03.743Z,100073.11
2023-05-23T10:13:03.200Z,100069.40
2023-05-23T10:15:38.591Z,100068.99
2023-05-23T10:18:17.533Z,100071.39
2023-05-23T10:20:52.939Z,100064.74
2023-05-23T10:23:21.983Z,100063.34
2023-05-23T10:25:51.879Z,100064.45
2023-05-23T10:28:24.863Z,100064.94
2023-05-23T10:30:53.816Z,100060.10
2023-05-23T10:33:23.995Z,100055.52
2023-05-23T10:36:05.791Z,100055.74
2023-05-23T10:38:47.884Z,100059.79
2023-05-23T10:41:26.581Z,100054.91
2023-05-23T10:44:07.197Z,100057.08
2023-05-23T10:46:55.921Z,100056.25
2023-05-23T10:49:44.345Z,100055.79
2023-05-23T10:52:17.942Z,100052.23
2023-05-23T10:54:55.398Z,100049.09
2023-05-23T10:57:30.680Z,100048.20
2023-05-23T10:59:59.352Z,100053.91
2023-05-23T11:03:25.523Z,100048.21
2023-05-23T11:06:03.945Z,100042.77
2023-05-23T11:08:48.230Z,100038.51
2023-05-23T11:11:18.574Z,100033.70
2023-05-23T11:13:53.238Z,100030.55
2023-05-23T11:16:33.179Z,100027.76
2023-05-23T11:19:23.260Z,100027.27
2023-05-23T11:22:02.299Z,100028.81
2023-05-23T11:24:54.615Z,100026.52
2023-05-23T11:27:38.332Z,100023.66
2023-05-23T11:30:15.388Z,100020.64
2023-05-23T11:33:01.416Z,100021.05
2023-05-23T11:35:31.779Z,100015.41
2023-05-23T11:38:03.295Z,100018.71
2023-05-23T11:40:34.402Z,100015.86
2023-05-23T11:43:06.775Z,100011.98
2023-05-23T11:45:38.587Z,100005.80
2023-05-23T11:48:15.631Z,100000.41
2023-05-23T11:50:54.094Z,99997.38
2023-05-23T11:53:26.049Z,99999.40
2023-05-23T11:56:00.866Z,99999.75
2023-05-23T11:58:31.318Z,99997.61
2023-05-23T12:01:07.078Z,99994.16
2023-05-23T12:03:46.463Z,99994.84
2023-05-23T12:06:24.192Z,99995.45
2023-05-23T12:08:53.101Z,99997.48
2023-05-23T12:11:24.035Z,99995.34
2023-05-23T12:13:53.720Z,99994.05
2023-05-23T12:16:22.193Z,99996.80
2023-05-23T12:18:53.796Z,99987.27
2023-05-23T12:22:18.770Z,99980.80
2023-05-23T12:25:21.221Z,99981.09
2023-05-23T12:28:30.498Z,99984.21
2023-05-23T12:32:29.387Z,99982.48
2023-05-23T12:35:58.254Z,99983.84
2023-05-23T12:39:48.945Z,99981.07
2023-05-23T12:47:27.708Z,99976.45
2023-05-23T12:50:18.736Z,99975.90
2023-05-23T12:56:24.179Z,99965.25
2023-05-23T12:58:54.238Z,99966.50
2023-05-23T13:01:23.218Z,99967.02
2023-05-23T13:03:51.738Z,99963.77
2023-05-23T13:06:20.265Z,99960.79
2023-05-23T13:08:51.684Z,99960.20
2023-05-23T13:11:20.220Z,99960.48
2023-05-23T13:13:50.011Z,99952.89
2023-05-23T13:16:18.642Z,99949.22
2023-05-23T13:18:47.074Z,99945.30
2023-05-23T13:21:16.067Z,99945.66
2023-05-23T13:23:44.512Z,99943.83
2023-05-23T13:26:14.880Z,99940.48
2023-05-23T13:28:43.606Z,99942.95
2023-05-23T13:31:12.112Z,99944.23
2023-05-23T13:33:40.533Z,99942.02
2023-05-23T13:36:44.626Z,99932.77
2023-05-23T13:39:13.246Z,99933.11
2023-05-23T13:41:41.875Z,99937.54
2023-05-23T13:44:10.273Z,99936.58
2023-05-23T13:46:38.924Z,99936.19
2023-05-23T13:49:07.326Z,99935.36
2023-05-23T13:51:37.817Z,99932.14
2023-05-23T13:54:06.717Z,99927.92
2023-05-23T13:56:35.323Z,99928.35
2023-05-23T13:59:03.717Z,99928.08
2023-05-23T14:01:32.524Z,99923.92
2023-05-23T14:04:01.670Z,99917.30
2023-05-23T14:06:30.040Z,99924.48
2023-05-23T14:08:58.380Z,99919.78
2023-05-23T14:11:26.753Z,99919.66
2023-05-23T14:13:56.620Z,99920.52
2023-05-23T14:16:25.188Z,99920.77
2023-05-23T14:18:53.692Z,99913.80
2023-05-23T14:21:22.661Z,99913.84
2023-05-23T14:23:51.160Z,99915.70
2023-05-23T14:26:19.769Z,99907.72
2023-05-23T14:28:48.441Z,99910.58
2023-05-23T14:31:16.968Z,99906.69
2023-05-23T14:33:45.369Z,99907.38
2023-05-23T14:36:13.725Z,99907.52
2023-05-23T14:38:45.760Z,99909.13
2023-05-23T14:41:14.789Z,99908.38
2023-05-23T14:43:43.425Z,99909.21
2023-05-23T14:46:12.617Z,99909.13
2023-05-23T14:48:42.976Z,99905.36
2023-05-23T14:51:14.062Z,99907.15
2023-05-23T14:53:49.427Z,99904.79
2023-05-23T14:56:18.045Z,99906.38
2023-05-23T14:58:46.553Z,99907.10
2023-05-23T15:01:15.185Z,99904.73
2023-05-23T15:03:43.626Z,99902.05
2023-05-23T15:06:12.909Z,99903.23
2023-05-23T15:08:41.735Z,99900.52
2023-05-23T15:11:10.443Z,99899.49
2023-05-23T15:13:38.873Z,99899.26
2023-05-23T15:16:07.511Z,99898.60
2023-05-23T15:18:41.259Z,99897.35
2023-05-23T15:21:12.564Z,99890.73
2023-05-23T15:23:41.966Z,99896.48
2023-05-23T15:26:10.576Z,99890.02
2023-05-23T15:28:39.108Z,99886.09
2023-05-23T15:31:07.794Z,99887.61
2023-05-23T15:33:36.263Z,99880.83
2023-05-23T15:36:05.012Z,99880.58
2023-05-23T15:38:33.577Z,99883.80
2023-05-23T15:41:02.856Z,99880.54
2023-05-23T15:43:32.889Z,99882.48
2023-05-23T15:46:02.043Z,99881.11
2023-05-23T15:48:30.731Z,99883.08
2023-05-23T15:50:59.159Z,99881.36
2023-05-23T15:53:28.390Z,99876.95
2023-05-23T15:55:57.801Z,99874.94
2023-05-23T15:58:26.269Z,99874.70
2023-05-23T16:00:54.636Z,99874.90
2023-05-23T16:03:23.118Z,99874.54
2023-05-23T16:05:51.833Z,99873.73
2023-05-23T16:08:22.034Z,99869.58
2023-05-23T16:10:53.209Z,99871.23
2023-05-23T16:13:21.687Z,99867.60
2023-05-23T16:15:50.065Z,99869.13
2023-05-23T16:18:18.603Z,99867.27
2023-05-23T16:20:47.194Z,99865.38
2023-05-23T16:23:15.750Z,99863.27
2023-05-23T16:25:45.269Z,99862.30
2023-05-23T16:28:13.958Z,99861.91
2023-05-23T16:30:42.566Z,99861.39
2023-05-23T16:33:11.059Z,99860.04
2023-05-23T16:35:39.840Z,99864.75
2023-05-23T16:38:08.622Z,99862.48
2023-05-23T16:40:38.651Z,99857.91
2023-05-23T16:43:07.161Z,99860.66
2023-05-23T16:45:35.743Z,99861.95
2023-05-23T16:48:04.376Z,99863.40
2023-05-23T16:50:32.854Z,99860.10
2023-05-23T16:53:01.521Z,99862.75
2023-05-23T16:55:29.946Z,99862.20
2023-05-23T16:57:58.426Z,99863.01
2023-05-23T17:00:38.963Z,99868.92
2023-05-23T17:07:28.504Z,99867.96
2023-05-23T17:14:24.589Z,99870.42
2023-05-23T17:17:10.992Z,99869.95
2023-05-23T17:19:58.464Z,99868.58
2023-05-23T17:22:54.034Z,99868.81
2023-05-23T17:25:26.407Z,99870.47
2023-05-23T17:28:23.760Z,99869.61
2023-05-23T17:31:30.797Z,99870.70
2023-05-23T17:34:49.354Z,99868.39
2023-05-23T17:38:29.348Z,99873.19
2023-05-23T17:44:27.873Z,99876.06
2023-05-23T17:48:04.872Z,99879.30
2023-05-23T17:50:38.316Z,99883.80
2023-05-23T18:05:36.518Z,99887.52
2023-05-23T18:24:46.339Z,99876.77
2023-05-23T18:40:10.482Z,99898.23
2023-05-23T18:43:54.535Z,99904.10
2023-05-23T18:46:27.155Z,99906.34
2023-05-23T18:48:57.788Z,99907.47
2023-05-23T18:51:26.632Z,99906.81
2023-05-23T18:53:55.121Z,99908.85
2023-05-23T18:56:27.287Z,99915.02
2023-05-23T18:58:56.228Z,99922.80
2023-05-23T19:01:24.723Z,99918.92
2023-05-23T19:03:53.698Z,99920.04
2023-05-23T19:06:22.874Z,99925.63
2023-05-23T19:08:51.854Z,99925.32
2023-05-23T19:11:20.306Z,99924.48
2023-05-23T19:13:52.171Z,99925.05
2023-05-23T19:16:21.322Z,99924.56
2023-05-23T19:18:49.889Z,99923.36
2023-05-23T19:21:18.376Z,99927.33
2023-05-23T19:25:06.547Z,99926.30
2023-05-23T19:27:18.039Z,99929.05
2023-05-23T19:30:00.906Z,99932.52
2023-05-23T19:32:53.898Z,99933.65
2023-05-23T19:35:56.749Z,99936.90
2023-05-23T19:39:32.734Z,99940.91
2023-05-23T19:43:26.112Z,99945.27
2023-05-23T19:47:21.403Z,99941.20
2023-05-23T19:53:57.596Z,99937.77
2023-05-23T20:00:13.323Z,99935.92
2023-05-23T20:02:57.484Z,99940.65
2023-05-23T20:05:45.030Z,99945.67
2023-05-23T20:08:19.782Z,99945.91
2023-05-23T20:10:59.676Z,99943.10
2023-05-23T20:13:28.390Z,99942.25
2023-05-23T20:15:57.150Z,99942.29
2023-05-23T20:18:25.738Z,99944.66
2023-05-23T20:20:55.445Z,99944.34
2023-05-23T20:23:24.044Z,99942.77
2023-05-23T20:25:53.261Z,99950.48
2023-05-23T20:28:22.139Z,99951.76
2023-05-23T20:30:50.778Z,99954.11
2023-05-23T20:33:20.315Z,99957.89
2023-05-23T20:35:50.096Z,99954.50
2023-05-23T20:38:20.329Z,99955.82
2023-05-23T20:40:52.580Z,99957.09
2023-05-23T20:43:22.535Z,99957.63
2023-05-23T20:45:51.091Z,99957.83
2023-05-23T20:48:19.907Z,99960.73
2023-05-23T20:50:48.735Z,99960.02
2023-05-23T20:53:17.813Z,99962.20
2023-05-23T20:55:46.343Z,99957.75
2023-05-23T20:58:14.792Z,99954.73
2023-05-23T21:00:43.769Z,99950.30
2023-05-23T21:03:12.543Z,99948.35
2023-05-23T21:05:41.474Z,99951.07
2023-05-23T21:08:10.226Z,99955.58
2023-05-23T21:10:38.730Z,99954.88
2023-05-23T21:13:07.225Z,99951.86
2023-05-23T21:15:35.808Z,99952.05
2023-05-23T21:18:04.522Z,99952.27
2023-05-23T21:20:32.934Z,99948.52
2023-05-23T21:23:01.440Z,99951.77
2023-05-23T21:25:29.891Z,99951.25
2023-05-23T21:27:58.876Z,99950.91
2023-05-23T21:30:27.375Z,99955.76
2023-05-23T21:32:56.176Z,99957.41
2023-05-23T21:35:24.670Z,99956.52
2023-05-23T21:37:53.188Z,99957.60
2023-05-23T21:40:21.749Z,99957.10
2023-05-23T21:42:50.207Z,99958.89
2023-05-23T21:45:18.755Z,99960.33
2023-05-23T21:47:47.220Z,99958.38
2023-05-23T21:50:15.800Z,99958.74
2023-05-23T21:52:44.173Z,99955.00
2023-05-23T21:55:12.567Z,99962.16
2023-05-23T21:57:41.198Z,99961.43
2023-05-23T22:00:12.885Z,99958.77
2023-05-23T22:02:41.427Z,99957.16
2023-05-23T22:05:10.240Z,99958.95
2023-05-23T22:07:38.528Z,99958.61
2023-05-23T22:10:07.688Z,99960.75
2023-05-23T22:12:36.462Z,99961.31
2023-05-23T22:15:05.841Z,99959.71
2023-05-23T22:17:34.820Z,99963.13
2023-05-23T22:20:07.653Z,99963.13
2023-05-23T22:22:36.599Z,99963.45
2023-05-23T22:25:06.459Z,99961.14
2023-05-23T22:27:35.153Z,99964.18
2023-05-23T22:30:03.999Z,99960.25
2023-05-23T22:32:32.406Z,99962.40
2023-05-23T22:35:01.070Z,99959.73
2023-05-23T22:37:29.377Z,99957.95
2023-05-23T22:39:57.657Z,99960.29
2023-05-23T22:42:26.090Z,99957.27
2023-05-23T22:44:54.652Z,99957.27
2023-05-23T22:47:23.060Z,99957.12
2023-05-23T22:49:56.634Z,99958.56
2023-05-23T22:52:25.703Z,99958.75
2023-05-23T22:54:54.286Z,99958.41
2023-05-23T22:57:22.786Z,99955.40
2023-05-23T22:59:51.488Z,99961.31
2023-05-23T23:02:19.782Z,99962.93
2023-05-23T23:04:48.617Z,99965.80
2023-05-23T23:07:17.092Z,99961.88
2023-05-23T23:09:45.852Z,99957.60
2023-05-23T23:12:14.179Z,99957.06
2023-05-23T23:14:42.523Z,99956.72
2023-05-23T23:17:10.830Z,99953.69
2023-05-23T23:19:39.477Z,99951.73
2023-05-23T23:22:07.873Z,99948.16
2023-05-23T23:24:36.166Z,99949.59
2023-05-23T23:27:04.763Z,99946.21
2023-05-23T23:29:33.189Z,99948.17
2023-05-23T23:32:01.716Z,99948.54
2023-05-23T23:34:30.227Z,99944.63
2023-05-23T23:36:58.848Z,99943.92
2023-05-23T23:39:27.204Z,99942.84
2023-05-23T23:41:55.729Z,99940.36
2023-05-23T23:44:24.199Z,99940.89
2023-05-23T23:46:52.776Z,99942.14
2023-05-23T23:49:21.276Z,99939.98
2023-05-23T23:51:49.761Z,99932.86
2023-05-23T23:54:19.245Z,99933.04
2023-05-23T23:56:47.727Z,99933.04
2023-05-23T23:59:16.134Z,99935.53
